sensor_id;sensor_type;location;lat;lon;timestamp;P1;durP1;ratioP1;P2;durP2;ratioP2
22764;SDS011;11549;50.852;3.816;2022-08-04T00:01:20;12.35;;;4.78;;
22764;SDS011;11549;50.852;3.816;2022-08-04T00:03:51;6.45;;;3.85;;
22764;SDS011;11549;50.852;3.816;2022-08-04T00:06:32;9.73;;;3.80;;
22764;SDS011;11549;50.852;3.816;2022-08-04T00:09:09;6.63;;;3.50;;
22764;SDS011;11549;50.852;3.816;2022-08-04T00:11:40;10.05;;;4.38;;
22764;SDS011;11549;50.852;3.816;2022-08-04T00:14:14;9.57;;;4.45;;
22764;SDS011;11549;50.852;3.816;2022-08-04T00:16:45;8.38;;;3.88;;
22764;SDS011;11549;50.852;3.816;2022-08-04T00:19:16;7.90;;;3.97;;
22764;SDS011;11549;50.852;3.816;2022-08-04T00:21:50;9.30;;;3.95;;
22764;SDS011;11549;50.852;3.816;2022-08-04T00:24:21;11.30;;;4.80;;
22764;SDS011;11549;50.852;3.816;2022-08-04T00:26:51;10.43;;;4.68;;
22764;SDS011;11549;50.852;3.816;2022-08-04T00:29:20;10.02;;;4.63;;
22764;SDS011;11549;50.852;3.816;2022-08-04T00:31:51;12.10;;;4.60;;
22764;SDS011;11549;50.852;3.816;2022-08-04T00:34:24;9.45;;;4.50;;
22764;SDS011;11549;50.852;3.816;2022-08-04T00:36:54;7.70;;;4.28;;
22764;SDS011;11549;50.852;3.816;2022-08-04T00:39:23;8.90;;;4.25;;
22764;SDS011;11549;50.852;3.816;2022-08-04T00:41:57;9.50;;;4.63;;
22764;SDS011;11549;50.852;3.816;2022-08-04T00:44:59;11.88;;;4.35;;
22764;SDS011;11549;50.852;3.816;2022-08-04T00:47:48;10.40;;;4.45;;
22764;SDS011;11549;50.852;3.816;2022-08-04T00:50:28;9.43;;;4.40;;
22764;SDS011;11549;50.852;3.816;2022-08-04T00:53:05;10.15;;;3.88;;
22764;SDS011;11549;50.852;3.816;2022-08-04T00:55:49;9.48;;;4.10;;
22764;SDS011;11549;50.852;3.816;2022-08-04T00:58:35;8.68;;;4.20;;
22764;SDS011;11549;50.852;3.816;2022-08-04T01:01:11;7.22;;;3.85;;
22764;SDS011;11549;50.852;3.816;2022-08-04T01:06:33;9.55;;;4.07;;
22764;SDS011;11549;50.852;3.816;2022-08-04T01:09:10;9.07;;;4.07;;
22764;SDS011;11549;50.852;3.816;2022-08-04T01:12:07;10.80;;;4.22;;
22764;SDS011;11549;50.852;3.816;2022-08-04T01:17:35;10.18;;;3.97;;
22764;SDS011;11549;50.852;3.816;2022-08-04T01:20:20;7.57;;;3.30;;
22764;SDS011;11549;50.852;3.816;2022-08-04T01:23:13;10.18;;;4.20;;
22764;SDS011;11549;50.852;3.816;2022-08-04T01:26:26;8.90;;;4.22;;
22764;SDS011;11549;50.852;3.816;2022-08-04T01:29:25;10.43;;;4.50;;
22764;SDS011;11549;50.852;3.816;2022-08-04T01:32:13;7.90;;;4.13;;
22764;SDS011;11549;50.852;3.816;2022-08-04T01:34:52;8.15;;;3.83;;
22764;SDS011;11549;50.852;3.816;2022-08-04T01:37:30;10.73;;;4.28;;
22764;SDS011;11549;50.852;3.816;2022-08-04T01:42:40;6.22;;;3.80;;
22764;SDS011;11549;50.852;3.816;2022-08-04T01:45:13;7.88;;;3.70;;
22764;SDS011;11549;50.852;3.816;2022-08-04T01:47:45;9.43;;;4.00;;
22764;SDS011;11549;50.852;3.816;2022-08-04T01:50:16;8.20;;;4.47;;
22764;SDS011;11549;50.852;3.816;2022-08-04T01:52:45;10.27;;;3.95;;
22764;SDS011;11549;50.852;3.816;2022-08-04T01:55:16;7.63;;;4.35;;
22764;SDS011;11549;50.852;3.816;2022-08-04T01:57:46;9.00;;;4.05;;
22764;SDS011;11549;50.852;3.816;2022-08-04T02:00:18;7.18;;;4.03;;
22764;SDS011;11549;50.852;3.816;2022-08-04T02:02:48;9.82;;;4.13;;
22764;SDS011;11549;50.852;3.816;2022-08-04T02:05:18;7.97;;;4.45;;
22764;SDS011;11549;50.852;3.816;2022-08-04T02:08:00;8.70;;;4.47;;
22764;SDS011;11549;50.852;3.816;2022-08-04T02:10:39;7.45;;;3.72;;
22764;SDS011;11549;50.852;3.816;2022-08-04T02:13:18;9.05;;;4.80;;
22764;SDS011;11549;50.852;3.816;2022-08-04T02:15:55;7.75;;;4.20;;
22764;SDS011;11549;50.852;3.816;2022-08-04T02:18:29;11.20;;;5.10;;
22764;SDS011;11549;50.852;3.816;2022-08-04T02:21:00;9.40;;;5.00;;
22764;SDS011;11549;50.852;3.816;2022-08-04T02:23:30;10.50;;;5.22;;
22764;SDS011;11549;50.852;3.816;2022-08-04T02:28:32;10.73;;;4.97;;
22764;SDS011;11549;50.852;3.816;2022-08-04T02:31:12;9.32;;;4.30;;
22764;SDS011;11549;50.852;3.816;2022-08-04T02:33:46;9.15;;;5.13;;
22764;SDS011;11549;50.852;3.816;2022-08-04T02:36:23;8.57;;;4.75;;
22764;SDS011;11549;50.852;3.816;2022-08-04T02:38:59;9.23;;;4.50;;
22764;SDS011;11549;50.852;3.816;2022-08-04T02:41:29;6.53;;;4.10;;
22764;SDS011;11549;50.852;3.816;2022-08-04T02:43:58;8.05;;;4.70;;
22764;SDS011;11549;50.852;3.816;2022-08-04T02:46:30;9.15;;;4.72;;
22764;SDS011;11549;50.852;3.816;2022-08-04T02:49:00;9.70;;;5.20;;
22764;SDS011;11549;50.852;3.816;2022-08-04T02:51:31;9.75;;;5.50;;
22764;SDS011;11549;50.852;3.816;2022-08-04T02:54:02;7.63;;;4.40;;
22764;SDS011;11549;50.852;3.816;2022-08-04T02:56:32;10.88;;;5.55;;
22764;SDS011;11549;50.852;3.816;2022-08-04T02:59:04;8.82;;;5.50;;
22764;SDS011;11549;50.852;3.816;2022-08-04T03:01:36;10.50;;;5.47;;
22764;SDS011;11549;50.852;3.816;2022-08-04T03:04:31;8.52;;;5.15;;
22764;SDS011;11549;50.852;3.816;2022-08-04T03:13:39;9.85;;;5.63;;
22764;SDS011;11549;50.852;3.816;2022-08-04T03:19:51;9.43;;;5.60;;
22764;SDS011;11549;50.852;3.816;2022-08-04T03:22:58;9.48;;;5.38;;
22764;SDS011;11549;50.852;3.816;2022-08-04T03:25:53;11.10;;;6.25;;
22764;SDS011;11549;50.852;3.816;2022-08-04T03:32:07;12.10;;;6.53;;
22764;SDS011;11549;50.852;3.816;2022-08-04T03:35:23;12.32;;;6.30;;
22764;SDS011;11549;50.852;3.816;2022-08-04T03:38:20;9.98;;;6.55;;
22764;SDS011;11549;50.852;3.816;2022-08-04T03:41:30;11.15;;;6.45;;
22764;SDS011;11549;50.852;3.816;2022-08-04T03:44:34;12.30;;;6.45;;
22764;SDS011;11549;50.852;3.816;2022-08-04T03:47:27;13.68;;;7.10;;
22764;SDS011;11549;50.852;3.816;2022-08-04T03:50:19;13.60;;;7.10;;
22764;SDS011;11549;50.852;3.816;2022-08-04T03:53:08;11.38;;;5.90;;
22764;SDS011;11549;50.852;3.816;2022-08-04T03:56:14;11.43;;;6.15;;
22764;SDS011;11549;50.852;3.816;2022-08-04T04:02:13;11.38;;;6.13;;
22764;SDS011;11549;50.852;3.816;2022-08-04T04:05:10;10.57;;;5.85;;
22764;SDS011;11549;50.852;3.816;2022-08-04T04:08:03;13.18;;;6.35;;
22764;SDS011;11549;50.852;3.816;2022-08-04T04:11:05;9.25;;;6.40;;
22764;SDS011;11549;50.852;3.816;2022-08-04T04:14:24;12.95;;;6.38;;
22764;SDS011;11549;50.852;3.816;2022-08-04T04:17:27;11.43;;;6.80;;
22764;SDS011;11549;50.852;3.816;2022-08-04T04:23:21;10.38;;;6.47;;
22764;SDS011;11549;50.852;3.816;2022-08-04T04:26:03;12.95;;;6.97;;
22764;SDS011;11549;50.852;3.816;2022-08-04T04:28:58;12.00;;;7.10;;
22764;SDS011;11549;50.852;3.816;2022-08-04T04:31:42;13.48;;;7.35;;
22764;SDS011;11549;50.852;3.816;2022-08-04T04:34:25;12.73;;;7.15;;
22764;SDS011;11549;50.852;3.816;2022-08-04T04:37:26;13.40;;;6.90;;
22764;SDS011;11549;50.852;3.816;2022-08-04T04:40:18;14.82;;;7.22;;
22764;SDS011;11549;50.852;3.816;2022-08-04T04:46:20;13.40;;;6.50;;
22764;SDS011;11549;50.852;3.816;2022-08-04T04:48:57;11.15;;;6.05;;
22764;SDS011;11549;50.852;3.816;2022-08-04T04:51:32;10.93;;;6.22;;
22764;SDS011;11549;50.852;3.816;2022-08-04T04:54:10;10.68;;;6.28;;
22764;SDS011;11549;50.852;3.816;2022-08-04T04:56:47;10.48;;;6.50;;
22764;SDS011;11549;50.852;3.816;2022-08-04T04:59:26;13.10;;;6.30;;
22764;SDS011;11549;50.852;3.816;2022-08-04T05:02:11;9.95;;;6.40;;
22764;SDS011;11549;50.852;3.816;2022-08-04T05:05:19;12.57;;;6.45;;
22764;SDS011;11549;50.852;3.816;2022-08-04T05:11:15;11.43;;;6.78;;
22764;SDS011;11549;50.852;3.816;2022-08-04T05:14:07;12.32;;;6.63;;
22764;SDS011;11549;50.852;3.816;2022-08-04T05:17:01;13.55;;;7.28;;
22764;SDS011;11549;50.852;3.816;2022-08-04T05:19:33;12.25;;;6.65;;
22764;SDS011;11549;50.852;3.816;2022-08-04T05:22:11;13.63;;;6.60;;
22764;SDS011;11549;50.852;3.816;2022-08-04T05:24:47;15.48;;;7.70;;
22764;SDS011;11549;50.852;3.816;2022-08-04T05:27:25;12.88;;;7.07;;
22764;SDS011;11549;50.852;3.816;2022-08-04T05:30:03;11.07;;;6.68;;
22764;SDS011;11549;50.852;3.816;2022-08-04T05:32:34;12.38;;;7.00;;
22764;SDS011;11549;50.852;3.816;2022-08-04T05:35:10;13.10;;;7.00;;
22764;SDS011;11549;50.852;3.816;2022-08-04T05:38:03;13.60;;;7.40;;
22764;SDS011;11549;50.852;3.816;2022-08-04T05:40:33;15.65;;;7.85;;
22764;SDS011;11549;50.852;3.816;2022-08-04T05:43:04;15.65;;;8.45;;
22764;SDS011;11549;50.852;3.816;2022-08-04T05:45:34;11.25;;;7.47;;
22764;SDS011;11549;50.852;3.816;2022-08-04T05:48:05;12.30;;;7.25;;
22764;SDS011;11549;50.852;3.816;2022-08-04T05:50:35;11.02;;;7.60;;
22764;SDS011;11549;50.852;3.816;2022-08-04T05:53:05;10.55;;;6.50;;
22764;SDS011;11549;50.852;3.816;2022-08-04T05:55:37;11.55;;;7.45;;
22764;SDS011;11549;50.852;3.816;2022-08-04T05:58:26;11.60;;;7.32;;
22764;SDS011;11549;50.852;3.816;2022-08-04T06:00:57;11.63;;;7.32;;
22764;SDS011;11549;50.852;3.816;2022-08-04T06:03:27;13.00;;;8.43;;
22764;SDS011;11549;50.852;3.816;2022-08-04T06:05:57;12.38;;;8.18;;
22764;SDS011;11549;50.852;3.816;2022-08-04T06:08:27;11.57;;;7.80;;
22764;SDS011;11549;50.852;3.816;2022-08-04T06:10:58;13.35;;;7.72;;
22764;SDS011;11549;50.852;3.816;2022-08-04T06:13:35;11.35;;;6.90;;
22764;SDS011;11549;50.852;3.816;2022-08-04T06:16:15;11.77;;;6.97;;
22764;SDS011;11549;50.852;3.816;2022-08-04T06:18:56;11.38;;;7.55;;
22764;SDS011;11549;50.852;3.816;2022-08-04T06:21:48;13.73;;;8.73;;
22764;SDS011;11549;50.852;3.816;2022-08-04T06:24:18;11.40;;;7.95;;
22764;SDS011;11549;50.852;3.816;2022-08-04T06:26:50;12.57;;;8.85;;
22764;SDS011;11549;50.852;3.816;2022-08-04T06:29:20;12.90;;;8.35;;
22764;SDS011;11549;50.852;3.816;2022-08-04T06:31:53;15.35;;;9.52;;
22764;SDS011;11549;50.852;3.816;2022-08-04T06:34:48;15.38;;;9.60;;
22764;SDS011;11549;50.852;3.816;2022-08-04T06:37:19;15.75;;;10.05;;
22764;SDS011;11549;50.852;3.816;2022-08-04T06:40:08;15.18;;;10.07;;
22764;SDS011;11549;50.852;3.816;2022-08-04T06:42:57;15.65;;;10.15;;
22764;SDS011;11549;50.852;3.816;2022-08-04T06:45:27;14.98;;;10.65;;
22764;SDS011;11549;50.852;3.816;2022-08-04T06:47:56;16.27;;;11.80;;
22764;SDS011;11549;50.852;3.816;2022-08-04T06:50:26;15.65;;;11.75;;
22764;SDS011;11549;50.852;3.816;2022-08-04T06:53:16;17.90;;;13.18;;
22764;SDS011;11549;50.852;3.816;2022-08-04T06:55:45;18.98;;;13.20;;
22764;SDS011;11549;50.852;3.816;2022-08-04T06:58:15;20.90;;;14.20;;
22764;SDS011;11549;50.852;3.816;2022-08-04T07:00:47;19.50;;;14.20;;
22764;SDS011;11549;50.852;3.816;2022-08-04T07:03:17;23.30;;;15.15;;
22764;SDS011;11549;50.852;3.816;2022-08-04T07:05:47;21.92;;;15.13;;
22764;SDS011;11549;50.852;3.816;2022-08-04T07:08:17;22.85;;;16.58;;
22764;SDS011;11549;50.852;3.816;2022-08-04T07:10:46;27.38;;;16.83;;
22764;SDS011;11549;50.852;3.816;2022-08-04T07:13:15;26.98;;;17.77;;
22764;SDS011;11549;50.852;3.816;2022-08-04T07:15:45;26.33;;;17.45;;
22764;SDS011;11549;50.852;3.816;2022-08-04T07:18:20;30.20;;;19.15;;
22764;SDS011;11549;50.852;3.816;2022-08-04T07:20:51;30.13;;;19.88;;
22764;SDS011;11549;50.852;3.816;2022-08-04T07:23:22;32.28;;;20.27;;
22764;SDS011;11549;50.852;3.816;2022-08-04T07:25:52;29.10;;;19.30;;
22764;SDS011;11549;50.852;3.816;2022-08-04T07:28:39;32.17;;;20.73;;
22764;SDS011;11549;50.852;3.816;2022-08-04T07:31:10;31.90;;;19.65;;
22764;SDS011;11549;50.852;3.816;2022-08-04T07:34:00;30.95;;;20.15;;
22764;SDS011;11549;50.852;3.816;2022-08-04T07:36:46;29.75;;;19.67;;
22764;SDS011;11549;50.852;3.816;2022-08-04T07:39:21;26.42;;;18.35;;
22764;SDS011;11549;50.852;3.816;2022-08-04T07:41:54;30.92;;;21.13;;
22764;SDS011;11549;50.852;3.816;2022-08-04T07:44:28;29.55;;;20.35;;
22764;SDS011;11549;50.852;3.816;2022-08-04T07:47:00;26.08;;;18.00;;
22764;SDS011;11549;50.852;3.816;2022-08-04T07:49:30;29.77;;;19.83;;
22764;SDS011;11549;50.852;3.816;2022-08-04T07:52:18;31.55;;;20.73;;
22764;SDS011;11549;50.852;3.816;2022-08-04T07:54:48;27.85;;;19.67;;
22764;SDS011;11549;50.852;3.816;2022-08-04T07:57:18;30.90;;;20.23;;
22764;SDS011;11549;50.852;3.816;2022-08-04T08:00:07;28.48;;;20.60;;
22764;SDS011;11549;50.852;3.816;2022-08-04T08:02:38;28.00;;;18.60;;
22764;SDS011;11549;50.852;3.816;2022-08-04T08:05:08;28.48;;;19.40;;
22764;SDS011;11549;50.852;3.816;2022-08-04T08:07:37;28.00;;;20.58;;
22764;SDS011;11549;50.852;3.816;2022-08-04T08:10:19;24.23;;;17.73;;
22764;SDS011;11549;50.852;3.816;2022-08-04T08:12:48;27.30;;;19.35;;
22764;SDS011;11549;50.852;3.816;2022-08-04T08:15:18;25.10;;;17.42;;
22764;SDS011;11549;50.852;3.816;2022-08-04T08:17:48;22.95;;;17.27;;
22764;SDS011;11549;50.852;3.816;2022-08-04T08:20:24;24.58;;;16.63;;
22764;SDS011;11549;50.852;3.816;2022-08-04T08:22:55;26.42;;;19.73;;
22764;SDS011;11549;50.852;3.816;2022-08-04T08:25:28;25.20;;;18.95;;
22764;SDS011;11549;50.852;3.816;2022-08-04T08:27:56;25.42;;;19.38;;
22764;SDS011;11549;50.852;3.816;2022-08-04T08:30:25;22.05;;;16.58;;
22764;SDS011;11549;50.852;3.816;2022-08-04T08:32:59;21.80;;;16.05;;
22764;SDS011;11549;50.852;3.816;2022-08-04T08:35:32;23.50;;;18.23;;
22764;SDS011;11549;50.852;3.816;2022-08-04T08:38:19;23.80;;;17.38;;
22764;SDS011;11549;50.852;3.816;2022-08-04T08:40:54;21.98;;;18.58;;
22764;SDS011;11549;50.852;3.816;2022-08-04T08:43:35;21.02;;;16.75;;
22764;SDS011;11549;50.852;3.816;2022-08-04T08:46:35;23.40;;;17.95;;
22764;SDS011;11549;50.852;3.816;2022-08-04T08:49:34;23.40;;;18.65;;
22764;SDS011;11549;50.852;3.816;2022-08-04T08:52:47;22.17;;;19.00;;
22764;SDS011;11549;50.852;3.816;2022-08-04T08:55:36;23.17;;;18.27;;
22764;SDS011;11549;50.852;3.816;2022-08-04T08:58:22;22.90;;;18.67;;
22764;SDS011;11549;50.852;3.816;2022-08-04T09:01:11;26.25;;;18.35;;
22764;SDS011;11549;50.852;3.816;2022-08-04T09:03:55;23.52;;;18.42;;
22764;SDS011;11549;50.852;3.816;2022-08-04T09:06:53;24.48;;;19.25;;
22764;SDS011;11549;50.852;3.816;2022-08-04T09:09:44;19.90;;;16.52;;
22764;SDS011;11549;50.852;3.816;2022-08-04T09:12:21;22.30;;;17.67;;
22764;SDS011;11549;50.852;3.816;2022-08-04T09:14:57;22.33;;;18.83;;
22764;SDS011;11549;50.852;3.816;2022-08-04T09:17:32;18.58;;;16.25;;
22764;SDS011;11549;50.852;3.816;2022-08-04T09:20:07;17.05;;;13.43;;
22764;SDS011;11549;50.852;3.816;2022-08-04T09:22:45;16.90;;;14.88;;
22764;SDS011;11549;50.852;3.816;2022-08-04T09:25:19;19.10;;;16.23;;
22764;SDS011;11549;50.852;3.816;2022-08-04T09:27:51;18.63;;;16.33;;
22764;SDS011;11549;50.852;3.816;2022-08-04T09:30:22;21.33;;;16.35;;
22764;SDS011;11549;50.852;3.816;2022-08-04T09:32:56;20.75;;;16.58;;
22764;SDS011;11549;50.852;3.816;2022-08-04T09:35:36;20.33;;;17.30;;
22764;SDS011;11549;50.852;3.816;2022-08-04T09:38:15;18.13;;;15.93;;
22764;SDS011;11549;50.852;3.816;2022-08-04T09:40:48;22.50;;;17.42;;
22764;SDS011;11549;50.852;3.816;2022-08-04T09:43:32;22.83;;;18.80;;
22764;SDS011;11549;50.852;3.816;2022-08-04T09:46:32;21.00;;;16.75;;
22764;SDS011;11549;50.852;3.816;2022-08-04T09:49:06;16.92;;;15.15;;
22764;SDS011;11549;50.852;3.816;2022-08-04T09:51:54;18.15;;;14.70;;
22764;SDS011;11549;50.852;3.816;2022-08-04T09:54:38;17.40;;;14.27;;
22764;SDS011;11549;50.852;3.816;2022-08-04T09:57:17;16.23;;;13.07;;
22764;SDS011;11549;50.852;3.816;2022-08-04T09:59:56;16.30;;;13.63;;
22764;SDS011;11549;50.852;3.816;2022-08-04T10:02:29;12.23;;;10.85;;
22764;SDS011;11549;50.852;3.816;2022-08-04T10:05:02;15.20;;;12.90;;
22764;SDS011;11549;50.852;3.816;2022-08-04T10:10:46;17.63;;;13.57;;
22764;SDS011;11549;50.852;3.816;2022-08-04T10:13:24;13.80;;;12.32;;
22764;SDS011;11549;50.852;3.816;2022-08-04T10:16:09;13.65;;;12.25;;
22764;SDS011;11549;50.852;3.816;2022-08-04T10:18:49;14.75;;;13.20;;
22764;SDS011;11549;50.852;3.816;2022-08-04T10:21:35;10.95;;;9.80;;
22764;SDS011;11549;50.852;3.816;2022-08-04T10:24:30;15.77;;;11.88;;
22764;SDS011;11549;50.852;3.816;2022-08-04T10:27:08;14.07;;;11.55;;
22764;SDS011;11549;50.852;3.816;2022-08-04T10:29:43;13.98;;;11.57;;
22764;SDS011;11549;50.852;3.816;2022-08-04T10:32:14;13.98;;;12.20;;
22764;SDS011;11549;50.852;3.816;2022-08-04T10:34:50;13.77;;;12.18;;
22764;SDS011;11549;50.852;3.816;2022-08-04T10:37:30;12.82;;;11.30;;
22764;SDS011;11549;50.852;3.816;2022-08-04T10:40:27;12.32;;;10.98;;
22764;SDS011;11549;50.852;3.816;2022-08-04T10:43:08;13.82;;;11.45;;
22764;SDS011;11549;50.852;3.816;2022-08-04T10:45:50;13.32;;;11.25;;
22764;SDS011;11549;50.852;3.816;2022-08-04T10:48:26;13.43;;;9.40;;
22764;SDS011;11549;50.852;3.816;2022-08-04T10:51:08;13.45;;;12.05;;
22764;SDS011;11549;50.852;3.816;2022-08-04T10:53:45;11.90;;;10.48;;
22764;SDS011;11549;50.852;3.816;2022-08-04T10:56:22;11.32;;;9.30;;
22764;SDS011;11549;50.852;3.816;2022-08-04T10:59:01;12.00;;;10.73;;
22764;SDS011;11549;50.852;3.816;2022-08-04T11:01:36;10.93;;;9.45;;
22764;SDS011;11549;50.852;3.816;2022-08-04T11:06:58;12.55;;;10.57;;
22764;SDS011;11549;50.852;3.816;2022-08-04T11:09:27;11.50;;;9.48;;
22764;SDS011;11549;50.852;3.816;2022-08-04T11:12:00;12.32;;;10.68;;
22764;SDS011;11549;50.852;3.816;2022-08-04T11:14:35;9.48;;;8.10;;
22764;SDS011;11549;50.852;3.816;2022-08-04T11:17:10;11.35;;;10.25;;
22764;SDS011;11549;50.852;3.816;2022-08-04T11:19:47;11.18;;;9.18;;
22764;SDS011;11549;50.852;3.816;2022-08-04T11:22:43;8.75;;;7.47;;
22764;SDS011;11549;50.852;3.816;2022-08-04T11:25:20;11.15;;;9.82;;
22764;SDS011;11549;50.852;3.816;2022-08-04T11:27:58;9.77;;;6.93;;
22764;SDS011;11549;50.852;3.816;2022-08-04T11:30:34;9.95;;;8.00;;
22764;SDS011;11549;50.852;3.816;2022-08-04T11:33:09;10.35;;;9.35;;
22764;SDS011;11549;50.852;3.816;2022-08-04T11:35:49;11.45;;;8.30;;
22764;SDS011;11549;50.852;3.816;2022-08-04T11:38:24;11.20;;;8.18;;
22764;SDS011;11549;50.852;3.816;2022-08-04T11:40:59;9.25;;;6.95;;
22764;SDS011;11549;50.852;3.816;2022-08-04T11:43:34;11.85;;;9.35;;
22764;SDS011;11549;50.852;3.816;2022-08-04T11:46:29;9.65;;;7.53;;
22764;SDS011;11549;50.852;3.816;2022-08-04T11:49:05;9.05;;;8.07;;
22764;SDS011;11549;50.852;3.816;2022-08-04T11:51:37;8.95;;;6.55;;
22764;SDS011;11549;50.852;3.816;2022-08-04T11:54:07;9.32;;;7.70;;
22764;SDS011;11549;50.852;3.816;2022-08-04T11:56:37;8.60;;;7.47;;
22764;SDS011;11549;50.852;3.816;2022-08-04T11:59:06;9.05;;;8.07;;
22764;SDS011;11549;50.852;3.816;2022-08-04T12:01:46;9.48;;;7.63;;
22764;SDS011;11549;50.852;3.816;2022-08-04T12:04:30;8.73;;;6.32;;
22764;SDS011;11549;50.852;3.816;2022-08-04T12:07:10;10.80;;;7.55;;
22764;SDS011;11549;50.852;3.816;2022-08-04T12:09:57;9.07;;;8.07;;
22764;SDS011;11549;50.852;3.816;2022-08-04T12:12:37;9.45;;;7.40;;
22764;SDS011;11549;50.852;3.816;2022-08-04T12:15:12;7.22;;;5.93;;
22764;SDS011;11549;50.852;3.816;2022-08-04T12:17:53;8.00;;;6.00;;
22764;SDS011;11549;50.852;3.816;2022-08-04T12:20:29;9.73;;;6.93;;
22764;SDS011;11549;50.852;3.816;2022-08-04T12:23:10;8.73;;;5.28;;
22764;SDS011;11549;50.852;3.816;2022-08-04T12:25:49;8.93;;;5.32;;
22764;SDS011;11549;50.852;3.816;2022-08-04T12:28:21;8.20;;;5.35;;
22764;SDS011;11549;50.852;3.816;2022-08-04T12:31:13;7.35;;;4.18;;
22764;SDS011;11549;50.852;3.816;2022-08-04T12:33:48;5.35;;;3.47;;
22764;SDS011;11549;50.852;3.816;2022-08-04T12:36:32;6.90;;;3.00;;
22764;SDS011;11549;50.852;3.816;2022-08-04T12:39:08;4.80;;;2.75;;
22764;SDS011;11549;50.852;3.816;2022-08-04T12:41:41;5.72;;;2.88;;
22764;SDS011;11549;50.852;3.816;2022-08-04T12:44:17;7.13;;;3.22;;
22764;SDS011;11549;50.852;3.816;2022-08-04T12:47:03;5.70;;;3.15;;
22764;SDS011;11549;50.852;3.816;2022-08-04T12:49:54;6.18;;;3.85;;
22764;SDS011;11549;50.852;3.816;2022-08-04T12:52:28;6.93;;;3.63;;
22764;SDS011;11549;50.852;3.816;2022-08-04T12:55:19;6.43;;;3.42;;
22764;SDS011;11549;50.852;3.816;2022-08-04T12:57:51;10.00;;;3.90;;
22764;SDS011;11549;50.852;3.816;2022-08-04T13:00:24;6.10;;;3.60;;
22764;SDS011;11549;50.852;3.816;2022-08-04T13:03:04;7.77;;;4.43;;
22764;SDS011;11549;50.852;3.816;2022-08-04T13:05:39;7.68;;;3.90;;
22764;SDS011;11549;50.852;3.816;2022-08-04T13:08:10;6.27;;;3.70;;
22764;SDS011;11549;50.852;3.816;2022-08-04T13:10:39;5.32;;;2.30;;
22764;SDS011;11549;50.852;3.816;2022-08-04T13:13:13;5.93;;;3.17;;
22764;SDS011;11549;50.852;3.816;2022-08-04T13:15:53;6.97;;;2.60;;
22764;SDS011;11549;50.852;3.816;2022-08-04T13:18:23;7.53;;;3.13;;
22764;SDS011;11549;50.852;3.816;2022-08-04T13:21:07;8.90;;;4.20;;
22764;SDS011;11549;50.852;3.816;2022-08-04T13:23:49;6.80;;;2.88;;
22764;SDS011;11549;50.852;3.816;2022-08-04T13:26:52;5.68;;;2.20;;
22764;SDS011;11549;50.852;3.816;2022-08-04T13:29:30;7.05;;;2.38;;
22764;SDS011;11549;50.852;3.816;2022-08-04T13:32:23;6.50;;;2.50;;
22764;SDS011;11549;50.852;3.816;2022-08-04T13:34:53;8.23;;;2.75;;
22764;SDS011;11549;50.852;3.816;2022-08-04T13:37:29;8.65;;;2.63;;
22764;SDS011;11549;50.852;3.816;2022-08-04T13:40:02;5.03;;;2.30;;
22764;SDS011;11549;50.852;3.816;2022-08-04T13:42:33;5.72;;;2.33;;
22764;SDS011;11549;50.852;3.816;2022-08-04T13:45:03;12.45;;;2.70;;
22764;SDS011;11549;50.852;3.816;2022-08-04T13:47:34;4.30;;;1.80;;
22764;SDS011;11549;50.852;3.816;2022-08-04T13:50:05;5.75;;;2.30;;
22764;SDS011;11549;50.852;3.816;2022-08-04T13:52:43;8.27;;;2.42;;
22764;SDS011;11549;50.852;3.816;2022-08-04T13:55:17;8.05;;;2.47;;
22764;SDS011;11549;50.852;3.816;2022-08-04T13:57:48;5.55;;;2.28;;
22764;SDS011;11549;50.852;3.816;2022-08-04T14:00:21;3.70;;;2.03;;
22764;SDS011;11549;50.852;3.816;2022-08-04T14:02:58;4.55;;;2.20;;
22764;SDS011;11549;50.852;3.816;2022-08-04T14:05:29;9.30;;;2.50;;
22764;SDS011;11549;50.852;3.816;2022-08-04T14:08:21;7.30;;;2.50;;
22764;SDS011;11549;50.852;3.816;2022-08-04T14:10:56;6.22;;;2.50;;
22764;SDS011;11549;50.852;3.816;2022-08-04T14:13:29;5.75;;;1.95;;
22764;SDS011;11549;50.852;3.816;2022-08-04T14:16:14;5.68;;;2.50;;
22764;SDS011;11549;50.852;3.816;2022-08-04T14:18:44;5.53;;;1.83;;
22764;SDS011;11549;50.852;3.816;2022-08-04T14:21:14;4.57;;;2.00;;
22764;SDS011;11549;50.852;3.816;2022-08-04T14:23:48;6.10;;;2.20;;
22764;SDS011;11549;50.852;3.816;2022-08-04T14:26:21;5.20;;;2.15;;
22764;SDS011;11549;50.852;3.816;2022-08-04T14:29:09;6.88;;;2.20;;
22764;SDS011;11549;50.852;3.816;2022-08-04T14:32:04;5.95;;;1.98;;
22764;SDS011;11549;50.852;3.816;2022-08-04T14:34:48;6.22;;;2.08;;
22764;SDS011;11549;50.852;3.816;2022-08-04T14:37:16;7.07;;;1.90;;
22764;SDS011;11549;50.852;3.816;2022-08-04T14:39:49;5.75;;;1.92;;
22764;SDS011;11549;50.852;3.816;2022-08-04T14:42:44;4.78;;;1.83;;
22764;SDS011;11549;50.852;3.816;2022-08-04T14:45:27;6.43;;;2.00;;
22764;SDS011;11549;50.852;3.816;2022-08-04T14:47:58;6.65;;;2.05;;
22764;SDS011;11549;50.852;3.816;2022-08-04T14:50:34;3.97;;;1.65;;
22764;SDS011;11549;50.852;3.816;2022-08-04T14:53:05;6.82;;;2.05;;
22764;SDS011;11549;50.852;3.816;2022-08-04T14:55:36;6.70;;;2.25;;
22764;SDS011;11549;50.852;3.816;2022-08-04T14:58:06;5.20;;;1.83;;
22764;SDS011;11549;50.852;3.816;2022-08-04T15:01:04;6.35;;;1.73;;
22764;SDS011;11549;50.852;3.816;2022-08-04T15:03:38;6.70;;;2.15;;
22764;SDS011;11549;50.852;3.816;2022-08-04T15:06:18;6.80;;;2.70;;
22764;SDS011;11549;50.852;3.816;2022-08-04T15:08:49;7.25;;;3.20;;
22764;SDS011;11549;50.852;3.816;2022-08-04T15:11:19;8.52;;;3.50;;
22764;SDS011;11549;50.852;3.816;2022-08-04T15:13:50;10.05;;;2.60;;
22764;SDS011;11549;50.852;3.816;2022-08-04T15:16:18;7.03;;;2.85;;
22764;SDS011;11549;50.852;3.816;2022-08-04T15:18:47;9.02;;;2.85;;
22764;SDS011;11549;50.852;3.816;2022-08-04T15:21:20;8.20;;;3.27;;
22764;SDS011;11549;50.852;3.816;2022-08-04T15:23:48;9.20;;;3.50;;
22764;SDS011;11549;50.852;3.816;2022-08-04T15:26:21;7.43;;;3.42;;
22764;SDS011;11549;50.852;3.816;2022-08-04T15:28:55;8.55;;;3.08;;
22764;SDS011;11549;50.852;3.816;2022-08-04T15:31:29;7.32;;;2.78;;
22764;SDS011;11549;50.852;3.816;2022-08-04T15:34:25;7.22;;;3.05;;
22764;SDS011;11549;50.852;3.816;2022-08-04T15:36:54;9.25;;;3.42;;
22764;SDS011;11549;50.852;3.816;2022-08-04T15:42:08;9.15;;;3.75;;
22764;SDS011;11549;50.852;3.816;2022-08-04T15:47:46;8.38;;;3.05;;
22764;SDS011;11549;50.852;3.816;2022-08-04T15:51:02;6.90;;;2.90;;
22764;SDS011;11549;50.852;3.816;2022-08-04T15:56:58;6.55;;;2.70;;
22764;SDS011;11549;50.852;3.816;2022-08-04T16:02:34;7.78;;;2.83;;
22764;SDS011;11549;50.852;3.816;2022-08-04T16:07:57;6.18;;;2.67;;
22764;SDS011;11549;50.852;3.816;2022-08-04T16:10:36;7.40;;;2.63;;
22764;SDS011;11549;50.852;3.816;2022-08-04T16:13:07;5.25;;;2.80;;
22764;SDS011;11549;50.852;3.816;2022-08-04T16:15:41;7.53;;;2.70;;
22764;SDS011;11549;50.852;3.816;2022-08-04T16:18:18;6.65;;;3.10;;
22764;SDS011;11549;50.852;3.816;2022-08-04T16:20:53;9.38;;;2.60;;
22764;SDS011;11549;50.852;3.816;2022-08-04T16:23:32;9.98;;;3.28;;
22764;SDS011;11549;50.852;3.816;2022-08-04T16:29:29;7.47;;;2.53;;
22764;SDS011;11549;50.852;3.816;2022-08-04T16:32:08;7.43;;;2.97;;
22764;SDS011;11549;50.852;3.816;2022-08-04T16:34:39;7.30;;;2.90;;
22764;SDS011;11549;50.852;3.816;2022-08-04T16:37:20;10.57;;;3.35;;
22764;SDS011;11549;50.852;3.816;2022-08-04T16:39:58;6.70;;;2.65;;
22764;SDS011;11549;50.852;3.816;2022-08-04T16:43:03;9.43;;;3.03;;
22764;SDS011;11549;50.852;3.816;2022-08-04T16:45:41;8.98;;;3.08;;